sensor_id;sensor_type;location;lat;lon;timestamp;temperature;humidity
12384;DHT22;6256;63.808;20.336;2022-12-11T00:00:53;-3.50;99.90
12384;DHT22;6256;63.808;20.336;2022-12-11T00:03:19;-3.50;99.90
12384;DHT22;6256;63.808;20.336;2022-12-11T00:05:45;-3.40;99.90
12384;DHT22;6256;63.808;20.336;2022-12-11T00:08:12;-3.50;99.90
12384;DHT22;6256;63.808;20.336;2022-12-11T00:10:38;-3.40;99.90
12384;DHT22;6256;63.808;20.336;2022-12-11T00:13:04;-3.40;99.90
12384;DHT22;6256;63.808;20.336;2022-12-11T00:15:29;-3.40;99.90
12384;DHT22;6256;63.808;20.336;2022-12-11T00:17:55;-3.40;99.90
12384;DHT22;6256;63.808;20.336;2022-12-11T00:20:21;-3.30;99.90
12384;DHT22;6256;63.808;20.336;2022-12-11T00:22:47;-3.30;99.90
12384;DHT22;6256;63.808;20.336;2022-12-11T00:25:12;-3.30;99.90
12384;DHT22;6256;63.808;20.336;2022-12-11T00:27:38;-3.30;99.90
12384;DHT22;6256;63.808;20.336;2022-12-11T00:30:04;-3.20;99.90
12384;DHT22;6256;63.808;20.336;2022-12-11T00:32:30;-3.20;99.90
12384;DHT22;6256;63.808;20.336;2022-12-11T00:34:56;-3.20;99.90
12384;DHT22;6256;63.808;20.336;2022-12-11T00:37:22;-3.10;99.90
12384;DHT22;6256;63.808;20.336;2022-12-11T00:39:48;-3.10;99.90
12384;DHT22;6256;63.808;20.336;2022-12-11T00:42:14;-3.10;99.90
12384;DHT22;6256;63.808;20.336;2022-12-11T00:44:39;-3.00;99.90
12384;DHT22;6256;63.808;20.336;2022-12-11T00:47:05;-3.00;99.90
12384;DHT22;6256;63.808;20.336;2022-12-11T00:49:31;-2.90;99.90
12384;DHT22;6256;63.808;20.336;2022-12-11T00:51:57;-2.90;99.90
12384;DHT22;6256;63.808;20.336;2022-12-11T00:54:23;-2.90;99.90
12384;DHT22;6256;63.808;20.336;2022-12-11T00:56:49;-2.80;99.90
12384;DHT22;6256;63.808;20.336;2022-12-11T00:59:15;-2.80;99.90
12384;DHT22;6256;63.808;20.336;2022-12-11T01:01:41;-2.80;99.90
12384;DHT22;6256;63.808;20.336;2022-12-11T01:04:07;-2.70;99.90
12384;DHT22;6256;63.808;20.336;2022-12-11T01:06:32;-2.70;99.90
12384;DHT22;6256;63.808;20.336;2022-12-11T01:08:58;-2.70;99.90
12384;DHT22;6256;63.808;20.336;2022-12-11T01:11:43;-2.60;99.90
12384;DHT22;6256;63.808;20.336;2022-12-11T01:14:10;-2.60;99.90
12384;DHT22;6256;63.808;20.336;2022-12-11T01:16:36;-2.50;99.90
12384;DHT22;6256;63.808;20.336;2022-12-11T01:19:01;-2.50;99.90
12384;DHT22;6256;63.808;20.336;2022-12-11T01:21:27;-2.40;99.90
12384;DHT22;6256;63.808;20.336;2022-12-11T01:23:53;-2.40;99.90
12384;DHT22;6256;63.808;20.336;2022-12-11T01:26:19;-2.30;99.90
12384;DHT22;6256;63.808;20.336;2022-12-11T01:28:48;-2.30;99.90
12384;DHT22;6256;63.808;20.336;2022-12-11T01:31:15;-2.30;99.90
12384;DHT22;6256;63.808;20.336;2022-12-11T01:33:41;-2.30;99.90
12384;DHT22;6256;63.808;20.336;2022-12-11T01:36:17;-2.30;99.90
12384;DHT22;6256;63.808;20.336;2022-12-11T01:38:44;-2.20;99.90
12384;DHT22;6256;63.808;20.336;2022-12-11T01:41:11;-2.20;99.90
12384;DHT22;6256;63.808;20.336;2022-12-11T01:46:21;-2.20;99.90
12384;DHT22;6256;63.808;20.336;2022-12-11T01:48:47;-2.10;99.90
12384;DHT22;6256;63.808;20.336;2022-12-11T01:51:13;-2.10;99.90
12384;DHT22;6256;63.808;20.336;2022-12-11T01:53:54;-2.10;99.90
12384;DHT22;6256;63.808;20.336;2022-12-11T01:56:22;-2.00;99.90
12384;DHT22;6256;63.808;20.336;2022-12-11T01:58:52;-2.00;99.90
12384;DHT22;6256;63.808;20.336;2022-12-11T02:01:29;-2.00;99.90
12384;DHT22;6256;63.808;20.336;2022-12-11T02:04:03;-2.00;99.90
12384;DHT22;6256;63.808;20.336;2022-12-11T02:06:37;-2.00;99.90
12384;DHT22;6256;63.808;20.336;2022-12-11T02:09:05;-2.00;99.90
12384;DHT22;6256;63.808;20.336;2022-12-11T02:17:16;-1.90;99.90
12384;DHT22;6256;63.808;20.336;2022-12-11T02:30:53;-1.70;99.90
12384;DHT22;6256;63.808;20.336;2022-12-11T02:33:26;-1.70;99.90
12384;DHT22;6256;63.808;20.336;2022-12-11T02:35:53;-1.70;99.90
12384;DHT22;6256;63.808;20.336;2022-12-11T02:38:28;-1.60;99.90
12384;DHT22;6256;63.808;20.336;2022-12-11T02:40:56;-1.60;99.90
12384;DHT22;6256;63.808;20.336;2022-12-11T02:43:24;-1.60;99.90
12384;DHT22;6256;63.808;20.336;2022-12-11T02:45:51;-1.50;99.90
12384;DHT22;6256;63.808;20.336;2022-12-11T02:48:19;-1.50;99.90
12384;DHT22;6256;63.808;20.336;2022-12-11T02:50:48;-1.50;99.90
12384;DHT22;6256;63.808;20.336;2022-12-11T02:53:18;-1.50;99.90
12384;DHT22;6256;63.808;20.336;2022-12-11T02:55:45;-1.40;99.90
12384;DHT22;6256;63.808;20.336;2022-12-11T02:58:24;-1.40;99.90
12384;DHT22;6256;63.808;20.336;2022-12-11T03:00:51;-1.40;99.90
12384;DHT22;6256;63.808;20.336;2022-12-11T03:03:16;-1.40;99.90
12384;DHT22;6256;63.808;20.336;2022-12-11T03:05:42;-1.40;99.90
12384;DHT22;6256;63.808;20.336;2022-12-11T03:08:10;-1.40;99.90
12384;DHT22;6256;63.808;20.336;2022-12-11T03:10:36;-1.30;99.90
12384;DHT22;6256;63.808;20.336;2022-12-11T03:13:03;-1.30;99.90
12384;DHT22;6256;63.808;20.336;2022-12-11T03:15:56;-1.40;99.90
12384;DHT22;6256;63.808;20.336;2022-12-11T03:21:17;-1.40;99.90
12384;DHT22;6256;63.808;20.336;2022-12-11T03:23:54;-1.30;99.90
12384;DHT22;6256;63.808;20.336;2022-12-11T03:26:22;-1.30;99.90
12384;DHT22;6256;63.808;20.336;2022-12-11T03:28:58;-1.30;99.90
12384;DHT22;6256;63.808;20.336;2022-12-11T03:31:39;-1.30;99.90
12384;DHT22;6256;63.808;20.336;2022-12-11T03:34:28;-1.30;99.90
12384;DHT22;6256;63.808;20.336;2022-12-11T03:36:56;-1.20;99.90
12384;DHT22;6256;63.808;20.336;2022-12-11T03:39:29;-1.20;99.90
12384;DHT22;6256;63.808;20.336;2022-12-11T03:42:00;-1.20;99.90
12384;DHT22;6256;63.808;20.336;2022-12-11T03:44:26;-1.20;99.90
12384;DHT22;6256;63.808;20.336;2022-12-11T03:46:54;-1.30;99.90
12384;DHT22;6256;63.808;20.336;2022-12-11T03:49:25;-1.20;99.90
12384;DHT22;6256;63.808;20.336;2022-12-11T03:51:54;-1.20;99.90
12384;DHT22;6256;63.808;20.336;2022-12-11T03:54:22;-1.20;99.90
12384;DHT22;6256;63.808;20.336;2022-12-11T03:56:50;-1.20;99.90
12384;DHT22;6256;63.808;20.336;2022-12-11T03:59:18;-1.30;99.90
12384;DHT22;6256;63.808;20.336;2022-12-11T04:01:43;-1.30;99.90
12384;DHT22;6256;63.808;20.336;2022-12-11T04:04:09;-1.30;99.90
12384;DHT22;6256;63.808;20.336;2022-12-11T04:06:35;-1.30;99.90
12384;DHT22;6256;63.808;20.336;2022-12-11T04:09:00;-1.30;99.90
12384;DHT22;6256;63.808;20.336;2022-12-11T04:11:26;-1.30;99.90
12384;DHT22;6256;63.808;20.336;2022-12-11T04:14:05;-1.30;99.90
12384;DHT22;6256;63.808;20.336;2022-12-11T04:16:49;-1.30;99.90
12384;DHT22;6256;63.808;20.336;2022-12-11T04:19:15;-1.30;99.90
12384;DHT22;6256;63.808;20.336;2022-12-11T04:22:00;-1.30;99.90
12384;DHT22;6256;63.808;20.336;2022-12-11T04:24:47;-1.30;99.90
12384;DHT22;6256;63.808;20.336;2022-12-11T04:27:13;-1.30;99.90
12384;DHT22;6256;63.808;20.336;2022-12-11T04:29:39;-1.30;99.90
12384;DHT22;6256;63.808;20.336;2022-12-11T04:32:04;-1.30;99.90
12384;DHT22;6256;63.808;20.336;2022-12-11T04:34:30;-1.40;99.90
12384;DHT22;6256;63.808;20.336;2022-12-11T04:36:56;-1.40;99.90
12384;DHT22;6256;63.808;20.336;2022-12-11T04:39:22;-1.40;99.90
12384;DHT22;6256;63.808;20.336;2022-12-11T04:41:48;-1.30;99.90
12384;DHT22;6256;63.808;20.336;2022-12-11T04:44:13;-1.40;99.90
12384;DHT22;6256;63.808;20.336;2022-12-11T04:46:39;-1.30;99.90
12384;DHT22;6256;63.808;20.336;2022-12-11T04:49:05;-1.30;99.90
12384;DHT22;6256;63.808;20.336;2022-12-11T04:51:30;-1.30;99.90
12384;DHT22;6256;63.808;20.336;2022-12-11T04:53:57;-1.30;99.90
12384;DHT22;6256;63.808;20.336;2022-12-11T04:56:23;-1.30;99.90
12384;DHT22;6256;63.808;20.336;2022-12-11T04:58:48;-1.30;99.90
12384;DHT22;6256;63.808;20.336;2022-12-11T05:01:17;-1.30;99.90
12384;DHT22;6256;63.808;20.336;2022-12-11T05:03:43;-1.30;99.90
12384;DHT22;6256;63.808;20.336;2022-12-11T05:06:10;-1.30;99.90
12384;DHT22;6256;63.808;20.336;2022-12-11T05:08:38;-1.40;99.90
12384;DHT22;6256;63.808;20.336;2022-12-11T05:11:06;-1.30;99.90
12384;DHT22;6256;63.808;20.336;2022-12-11T05:13:32;-1.40;99.90
12384;DHT22;6256;63.808;20.336;2022-12-11T05:15:58;-1.40;99.90
12384;DHT22;6256;63.808;20.336;2022-12-11T05:18:24;-1.40;99.90
12384;DHT22;6256;63.808;20.336;2022-12-11T05:20:58;-1.40;99.90
12384;DHT22;6256;63.808;20.336;2022-12-11T05:23:24;-1.40;99.90
12384;DHT22;6256;63.808;20.336;2022-12-11T05:25:55;-1.40;99.90
12384;DHT22;6256;63.808;20.336;2022-12-11T05:28:22;-1.40;99.90
12384;DHT22;6256;63.808;20.336;2022-12-11T05:30:58;-1.40;99.90
12384;DHT22;6256;63.808;20.336;2022-12-11T05:33:24;-1.40;99.90
12384;DHT22;6256;63.808;20.336;2022-12-11T05:35:51;-1.50;99.90
12384;DHT22;6256;63.808;20.336;2022-12-11T05:38:17;-1.50;99.90
12384;DHT22;6256;63.808;20.336;2022-12-11T05:40:42;-1.50;99.90
12384;DHT22;6256;63.808;20.336;2022-12-11T05:43:08;-1.50;99.90
12384;DHT22;6256;63.808;20.336;2022-12-11T05:45:34;-1.50;99.90
12384;DHT22;6256;63.808;20.336;2022-12-11T05:47:59;-1.50;99.90
12384;DHT22;6256;63.808;20.336;2022-12-11T05:50:25;-1.50;99.90
12384;DHT22;6256;63.808;20.336;2022-12-11T05:52:51;-1.50;99.90
12384;DHT22;6256;63.808;20.336;2022-12-11T05:55:17;-1.50;99.90
12384;DHT22;6256;63.808;20.336;2022-12-11T05:57:42;-1.50;99.90
12384;DHT22;6256;63.808;20.336;2022-12-11T06:00:10;-1.60;99.90
12384;DHT22;6256;63.808;20.336;2022-12-11T06:02:36;-1.60;99.90
12384;DHT22;6256;63.808;20.336;2022-12-11T06:05:02;-1.60;99.90
12384;DHT22;6256;63.808;20.336;2022-12-11T06:07:27;-1.50;99.90
12384;DHT22;6256;63.808;20.336;2022-12-11T06:09:53;-1.50;99.90
12384;DHT22;6256;63.808;20.336;2022-12-11T06:12:19;-1.60;99.90
12384;DHT22;6256;63.808;20.336;2022-12-11T06:14:44;-1.50;99.90
12384;DHT22;6256;63.808;20.336;2022-12-11T06:17:10;-1.50;99.90
12384;DHT22;6256;63.808;20.336;2022-12-11T06:19:36;-1.50;99.90
12384;DHT22;6256;63.808;20.336;2022-12-11T06:22:02;-1.50;99.90
12384;DHT22;6256;63.808;20.336;2022-12-11T06:24:27;-1.50;99.90
12384;DHT22;6256;63.808;20.336;2022-12-11T06:26:53;-1.50;99.90
12384;DHT22;6256;63.808;20.336;2022-12-11T06:29:19;-1.50;99.90
12384;DHT22;6256;63.808;20.336;2022-12-11T06:31:44;-1.50;99.90
12384;DHT22;6256;63.808;20.336;2022-12-11T06:34:11;-1.50;99.90
12384;DHT22;6256;63.808;20.336;2022-12-11T06:36:37;-1.60;99.90
12384;DHT22;6256;63.808;20.336;2022-12-11T06:39:03;-1.60;99.90
12384;DHT22;6256;63.808;20.336;2022-12-11T06:41:29;-1.60;99.90
12384;DHT22;6256;63.808;20.336;2022-12-11T06:43:54;-1.50;99.90
12384;DHT22;6256;63.808;20.336;2022-12-11T06:46:20;-1.50;99.90
12384;DHT22;6256;63.808;20.336;2022-12-11T06:48:46;-1.50;99.90
12384;DHT22;6256;63.808;20.336;2022-12-11T06:51:18;-1.50;99.90
12384;DHT22;6256;63.808;20.336;2022-12-11T06:53:44;-1.50;99.90
12384;DHT22;6256;63.808;20.336;2022-12-11T06:56:12;-1.50;99.90
12384;DHT22;6256;63.808;20.336;2022-12-11T06:58:39;-1.50;99.90
12384;DHT22;6256;63.808;20.336;2022-12-11T07:01:20;-1.50;99.90
12384;DHT22;6256;63.808;20.336;2022-12-11T07:03:46;-1.50;99.90
12384;DHT22;6256;63.808;20.336;2022-12-11T07:06:12;-1.50;99.90
12384;DHT22;6256;63.808;20.336;2022-12-11T07:08:38;-1.50;99.90
12384;DHT22;6256;63.808;20.336;2022-12-11T07:11:06;-1.50;99.90
12384;DHT22;6256;63.808;20.336;2022-12-11T07:13:32;-1.50;99.90
12384;DHT22;6256;63.808;20.336;2022-12-11T07:15:58;-1.60;99.90
12384;DHT22;6256;63.808;20.336;2022-12-11T07:18:26;-1.50;99.90
12384;DHT22;6256;63.808;20.336;2022-12-11T07:20:52;-1.50;99.90
12384;DHT22;6256;63.808;20.336;2022-12-11T07:23:18;-1.50;99.90
12384;DHT22;6256;63.808;20.336;2022-12-11T07:25:43;-1.50;99.90
12384;DHT22;6256;63.808;20.336;2022-12-11T07:28:09;-1.50;99.90
12384;DHT22;6256;63.808;20.336;2022-12-11T07:30:37;-1.50;99.90
12384;DHT22;6256;63.808;20.336;2022-12-11T07:33:03;-1.50;99.90
12384;DHT22;6256;63.808;20.336;2022-12-11T07:35:29;-1.50;99.90
12384;DHT22;6256;63.808;20.336;2022-12-11T07:37:57;-1.50;99.90
12384;DHT22;6256;63.808;20.336;2022-12-11T07:40:24;-1.50;99.90
12384;DHT22;6256;63.808;20.336;2022-12-11T07:42:49;-1.50;99.90
12384;DHT22;6256;63.808;20.336;2022-12-11T07:45:15;-1.40;99.90
12384;DHT22;6256;63.808;20.336;2022-12-11T07:47:41;-1.40;99.90
12384;DHT22;6256;63.808;20.336;2022-12-11T07:50:07;-1.40;99.90
12384;DHT22;6256;63.808;20.336;2022-12-11T07:52:33;-1.50;99.90
12384;DHT22;6256;63.808;20.336;2022-12-11T07:54:59;-1.50;99.90
12384;DHT22;6256;63.808;20.336;2022-12-11T07:57:24;-1.50;99.90
12384;DHT22;6256;63.808;20.336;2022-12-11T07:59:50;-1.40;99.90
12384;DHT22;6256;63.808;20.336;2022-12-11T08:02:16;-1.40;99.90
12384;DHT22;6256;63.808;20.336;2022-12-11T08:04:41;-1.50;99.90
12384;DHT22;6256;63.808;20.336;2022-12-11T08:07:07;-1.50;99.90
12384;DHT22;6256;63.808;20.336;2022-12-11T08:09:33;-1.50;99.90
12384;DHT22;6256;63.808;20.336;2022-12-11T08:11:58;-1.50;99.90
12384;DHT22;6256;63.808;20.336;2022-12-11T08:14:24;-1.50;99.90
12384;DHT22;6256;63.808;20.336;2022-12-11T08:16:50;-1.50;99.90
12384;DHT22;6256;63.808;20.336;2022-12-11T08:19:16;-1.40;99.90
12384;DHT22;6256;63.808;20.336;2022-12-11T08:21:42;-1.40;99.90
12384;DHT22;6256;63.808;20.336;2022-12-11T08:24:08;-1.40;99.90
12384;DHT22;6256;63.808;20.336;2022-12-11T08:26:34;-1.40;99.90
12384;DHT22;6256;63.808;20.336;2022-12-11T08:29:00;-1.40;99.90
12384;DHT22;6256;63.808;20.336;2022-12-11T08:31:27;-1.40;99.90
12384;DHT22;6256;63.808;20.336;2022-12-11T08:33:54;-1.40;99.90
12384;DHT22;6256;63.808;20.336;2022-12-11T08:36:21;-1.50;99.90
12384;DHT22;6256;63.808;20.336;2022-12-11T08:38:48;-1.40;99.90
12384;DHT22;6256;63.808;20.336;2022-12-11T08:41:19;-1.40;99.90
12384;DHT22;6256;63.808;20.336;2022-12-11T08:43:46;-1.40;99.90
12384;DHT22;6256;63.808;20.336;2022-12-11T08:46:12;-1.40;99.90
12384;DHT22;6256;63.808;20.336;2022-12-11T08:48:41;-1.40;99.90
12384;DHT22;6256;63.808;20.336;2022-12-11T08:51:11;-1.40;99.90
12384;DHT22;6256;63.808;20.336;2022-12-11T08:53:37;-1.40;99.90
12384;DHT22;6256;63.808;20.336;2022-12-11T08:56:06;-1.40;99.90
12384;DHT22;6256;63.808;20.336;2022-12-11T08:58:32;-1.40;99.90
12384;DHT22;6256;63.808;20.336;2022-12-11T09:00:58;-1.40;99.90
12384;DHT22;6256;63.808;20.336;2022-12-11T09:03:24;-1.40;99.90
12384;DHT22;6256;63.808;20.336;2022-12-11T09:05:50;-1.40;99.90
12384;DHT22;6256;63.808;20.336;2022-12-11T09:08:16;-1.40;99.90
12384;DHT22;6256;63.808;20.336;2022-12-11T09:10:42;-1.40;99.90
12384;DHT22;6256;63.808;20.336;2022-12-11T09:13:07;-1.40;99.90
12384;DHT22;6256;63.808;20.336;2022-12-11T09:15:33;-1.40;99.90
12384;DHT22;6256;63.808;20.336;2022-12-11T09:17:59;-1.40;99.90
12384;DHT22;6256;63.808;20.336;2022-12-11T09:20:24;-1.40;99.90
12384;DHT22;6256;63.808;20.336;2022-12-11T09:22:50;-1.40;99.90
12384;DHT22;6256;63.808;20.336;2022-12-11T09:25:16;-1.40;99.90
12384;DHT22;6256;63.808;20.336;2022-12-11T09:27:41;-1.40;99.90
12384;DHT22;6256;63.808;20.336;2022-12-11T09:30:07;-1.40;99.90
12384;DHT22;6256;63.808;20.336;2022-12-11T09:32:33;-1.40;99.90
12384;DHT22;6256;63.808;20.336;2022-12-11T09:34:59;-1.50;99.90
12384;DHT22;6256;63.808;20.336;2022-12-11T09:37:24;-1.40;99.90
12384;DHT22;6256;63.808;20.336;2022-12-11T09:39:50;-1.40;99.90
12384;DHT22;6256;63.808;20.336;2022-12-11T09:42:37;-1.40;99.90
12384;DHT22;6256;63.808;20.336;2022-12-11T09:45:04;-1.40;99.90
12384;DHT22;6256;63.808;20.336;2022-12-11T09:47:38;-1.40;99.90
12384;DHT22;6256;63.808;20.336;2022-12-11T09:50:19;-1.40;99.90
12384;DHT22;6256;63.808;20.336;2022-12-11T09:55:25;-1.40;99.90
12384;DHT22;6256;63.808;20.336;2022-12-11T09:58:13;-1.40;99.90
12384;DHT22;6256;63.808;20.336;2022-12-11T10:00:48;-1.40;99.90
12384;DHT22;6256;63.808;20.336;2022-12-11T10:03:42;-1.40;99.90
12384;DHT22;6256;63.808;20.336;2022-12-11T10:06:27;-1.40;99.90
12384;DHT22;6256;63.808;20.336;2022-12-11T10:14:49;-1.40;99.90
12384;DHT22;6256;63.808;20.336;2022-12-11T10:17:31;-1.40;99.90
12384;DHT22;6256;63.808;20.336;2022-12-11T10:20:19;-1.30;99.90
12384;DHT22;6256;63.808;20.336;2022-12-11T10:22:48;-1.30;99.90
12384;DHT22;6256;63.808;20.336;2022-12-11T10:25:35;-1.30;99.90
12384;DHT22;6256;63.808;20.336;2022-12-11T10:28:12;-1.30;99.90
12384;DHT22;6256;63.808;20.336;2022-12-11T10:34:03;-1.30;99.90
12384;DHT22;6256;63.808;20.336;2022-12-11T10:36:39;-1.30;99.90
12384;DHT22;6256;63.808;20.336;2022-12-11T10:39:13;-1.30;99.90
12384;DHT22;6256;63.808;20.336;2022-12-11T10:41:43;-1.30;99.90
12384;DHT22;6256;63.808;20.336;2022-12-11T10:44:29;-1.30;99.90
12384;DHT22;6256;63.808;20.336;2022-12-11T10:47:09;-1.30;99.90
12384;DHT22;6256;63.808;20.336;2022-12-11T10:49:37;-1.20;99.90
12384;DHT22;6256;63.808;20.336;2022-12-11T10:52:19;-1.20;99.90
12384;DHT22;6256;63.808;20.336;2022-12-11T10:54:46;-1.30;99.90
12384;DHT22;6256;63.808;20.336;2022-12-11T10:57:27;-1.30;99.90
12384;DHT22;6256;63.808;20.336;2022-12-11T10:59:54;-1.30;99.90
12384;DHT22;6256;63.808;20.336;2022-12-11T11:02:35;-1.30;99.90
12384;DHT22;6256;63.808;20.336;2022-12-11T11:05:13;-1.30;99.90
12384;DHT22;6256;63.808;20.336;2022-12-11T11:07:40;-1.30;99.90
12384;DHT22;6256;63.808;20.336;2022-12-11T11:12:37;-1.40;99.90
12384;DHT22;6256;63.808;20.336;2022-12-11T11:17:59;-1.40;99.90
12384;DHT22;6256;63.808;20.336;2022-12-11T11:20:29;-1.50;99.90
12384;DHT22;6256;63.808;20.336;2022-12-11T11:23:00;-1.50;99.90
12384;DHT22;6256;63.808;20.336;2022-12-11T11:25:29;-1.50;99.90
12384;DHT22;6256;63.808;20.336;2022-12-11T11:28:02;-1.50;99.90
12384;DHT22;6256;63.808;20.336;2022-12-11T11:30:32;-1.50;99.90
12384;DHT22;6256;63.808;20.336;2022-12-11T11:33:17;-1.50;99.90
12384;DHT22;6256;63.808;20.336;2022-12-11T11:36:00;-1.50;99.90
12384;DHT22;6256;63.808;20.336;2022-12-11T11:41:36;-1.60;99.90
12384;DHT22;6256;63.808;20.336;2022-12-11T11:44:08;-1.60;99.90
12384;DHT22;6256;63.808;20.336;2022-12-11T11:46:41;-1.60;99.90
12384;DHT22;6256;63.808;20.336;2022-12-11T11:51:58;-1.60;99.90
12384;DHT22;6256;63.808;20.336;2022-12-11T11:57:11;-1.60;99.90
12384;DHT22;6256;63.808;20.336;2022-12-11T11:59:54;-1.60;99.90
12384;DHT22;6256;63.808;20.336;2022-12-11T12:02:22;-1.60;99.90
12384;DHT22;6256;63.808;20.336;2022-12-11T12:04:48;-1.60;99.90
12384;DHT22;6256;63.808;20.336;2022-12-11T12:07:24;-1.60;99.90
12384;DHT22;6256;63.808;20.336;2022-12-11T12:12:56;-1.60;99.90
12384;DHT22;6256;63.808;20.336;2022-12-11T12:21:18;-1.60;99.90
12384;DHT22;6256;63.808;20.336;2022-12-11T12:46:02;-1.50;99.90
12384;DHT22;6256;63.808;20.336;2022-12-11T12:48:32;-1.50;99.90
12384;DHT22;6256;63.808;20.336;2022-12-11T12:50:59;-1.50;99.90
12384;DHT22;6256;63.808;20.336;2022-12-11T12:53:28;-1.50;99.90
12384;DHT22;6256;63.808;20.336;2022-12-11T12:55:57;-1.60;99.90
12384;DHT22;6256;63.808;20.336;2022-12-11T12:58:40;-1.60;99.90
12384;DHT22;6256;63.808;20.336;2022-12-11T13:03:48;-1.60;99.90
12384;DHT22;6256;63.808;20.336;2022-12-11T13:06:15;-1.60;99.90
12384;DHT22;6256;63.808;20.336;2022-12-11T13:08:52;-1.60;99.90
12384;DHT22;6256;63.808;20.336;2022-12-11T13:11:19;-1.60;99.90
12384;DHT22;6256;63.808;20.336;2022-12-11T13:13:48;-1.60;99.90
12384;DHT22;6256;63.808;20.336;2022-12-11T13:18:45;-1.70;99.90
12384;DHT22;6256;63.808;20.336;2022-12-11T13:21:34;-1.60;99.90
12384;DHT22;6256;63.808;20.336;2022-12-11T13:26:45;-1.60;99.90
12384;DHT22;6256;63.808;20.336;2022-12-11T13:29:30;-1.60;99.90
12384;DHT22;6256;63.808;20.336;2022-12-11T13:32:04;-1.60;99.90
12384;DHT22;6256;63.808;20.336;2022-12-11T13:34:50;-1.60;99.90
12384;DHT22;6256;63.808;20.336;2022-12-11T13:37:39;-1.60;99.90
12384;DHT22;6256;63.808;20.336;2022-12-11T13:40:21;-1.60;99.90
12384;DHT22;6256;63.808;20.336;2022-12-11T13:45:37;-1.60;99.90
12384;DHT22;6256;63.808;20.336;2022-12-11T13:48:18;-1.60;99.90
12384;DHT22;6256;63.808;20.336;2022-12-11T13:50:44;-1.60;99.90
12384;DHT22;6256;63.808;20.336;2022-12-11T13:53:15;-1.60;99.90
12384;DHT22;6256;63.808;20.336;2022-12-11T13:55:42;-1.60;99.90
12384;DHT22;6256;63.808;20.336;2022-12-11T13:58:18;-1.60;99.90
12384;DHT22;6256;63.808;20.336;2022-12-11T14:03:27;-1.60;99.90
12384;DHT22;6256;63.808;20.336;2022-12-11T14:05:54;-1.60;99.90
12384;DHT22;6256;63.808;20.336;2022-12-11T14:08:23;-1.60;99.90
12384;DHT22;6256;63.808;20.336;2022-12-11T14:10:52;-1.60;99.90
12384;DHT22;6256;63.808;20.336;2022-12-11T14:13:25;-1.60;99.90
12384;DHT22;6256;63.808;20.336;2022-12-11T14:15:52;-1.60;99.90
12384;DHT22;6256;63.808;20.336;2022-12-11T14:18:23;-1.60;99.90
12384;DHT22;6256;63.808;20.336;2022-12-11T14:21:17;-1.60;99.90
12384;DHT22;6256;63.808;20.336;2022-12-11T14:24:00;-1.60;99.90
12384;DHT22;6256;63.808;20.336;2022-12-11T14:26:32;-1.60;99.90
12384;DHT22;6256;63.808;20.336;2022-12-11T14:28:58;-1.60;99.90
12384;DHT22;6256;63.808;20.336;2022-12-11T14:31:40;-1.70;99.90
12384;DHT22;6256;63.808;20.336;2022-12-11T14:34:16;-1.70;99.90
12384;DHT22;6256;63.808;20.336;2022-12-11T14:36:45;-1.70;99.90
12384;DHT22;6256;63.808;20.336;2022-12-11T14:40:00;-1.70;99.90
12384;DHT22;6256;63.808;20.336;2022-12-11T14:42:30;-1.70;99.90
12384;DHT22;6256;63.808;20.336;2022-12-11T14:47:43;-1.70;99.90
12384;DHT22;6256;63.808;20.336;2022-12-11T14:50:20;-1.80;99.90
12384;DHT22;6256;63.808;20.336;2022-12-11T14:52:52;-1.80;99.90
12384;DHT22;6256;63.808;20.336;2022-12-11T14:55:30;-1.80;99.90
12384;DHT22;6256;63.808;20.336;2022-12-11T14:58:02;-1.80;99.90
12384;DHT22;6256;63.808;20.336;2022-12-11T15:00:33;-1.70;99.90
12384;DHT22;6256;63.808;20.336;2022-12-11T15:03:23;-1.70;99.90
12384;DHT22;6256;63.808;20.336;2022-12-11T15:05:53;-1.70;99.90
12384;DHT22;6256;63.808;20.336;2022-12-11T15:11:09;-1.70;99.90
12384;DHT22;6256;63.808;20.336;2022-12-11T15:13:38;-1.80;99.90
12384;DHT22;6256;63.808;20.336;2022-12-11T15:16:13;-1.80;99.90
12384;DHT22;6256;63.808;20.336;2022-12-11T15:18:40;-1.80;99.90
12384;DHT22;6256;63.808;20.336;2022-12-11T15:21:08;-1.80;99.90
12384;DHT22;6256;63.808;20.336;2022-12-11T15:23:51;-1.70;99.90
12384;DHT22;6256;63.808;20.336;2022-12-11T15:26:19;-1.70;99.90
12384;DHT22;6256;63.808;20.336;2022-12-11T15:28:45;-1.70;99.90
12384;DHT22;6256;63.808;20.336;2022-12-11T15:31:26;-1.70;99.90
12384;DHT22;6256;63.808;20.336;2022-12-11T15:33:52;-1.70;99.90
12384;DHT22;6256;63.808;20.336;2022-12-11T15:36:38;-1.70;99.90
12384;DHT22;6256;63.808;20.336;2022-12-11T15:39:04;-1.80;99.90
12384;DHT22;6256;63.808;20.336;2022-12-11T15:41:33;-1.80;99.90
12384;DHT22;6256;63.808;20.336;2022-12-11T15:44:01;-1.80;99.90
12384;DHT22;6256;63.808;20.336;2022-12-11T15:46:27;-1.80;99.90
12384;DHT22;6256;63.808;20.336;2022-12-11T15:48:55;-1.80;99.90
12384;DHT22;6256;63.808;20.336;2022-12-11T15:51:21;-1.80;99.90
12384;DHT22;6256;63.808;20.336;2022-12-11T15:53:47;-1.80;99.90
12384;DHT22;6256;63.808;20.336;2022-12-11T15:56:17;-1.70;99.90
12384;DHT22;6256;63.808;20.336;2022-12-11T15:58:46;-1.70;99.90
12384;DHT22;6256;63.808;20.336;2022-12-11T16:01:13;-1.80;99.90
12384;DHT22;6256;63.808;20.336;2022-12-11T16:03:38;-1.70;99.90
12384;DHT22;6256;63.808;20.336;2022-12-11T16:06:04;-1.80;99.90
12384;DHT22;6256;63.808;20.336;2022-12-11T16:08:30;-1.80;99.90
12384;DHT22;6256;63.808;20.336;2022-12-11T16:10:55;-1.80;99.90
12384;DHT22;6256;63.808;20.336;2022-12-11T16:13:21;-1.80;99.90
12384;DHT22;6256;63.808;20.336;2022-12-11T16:15:49;-1.80;99.90
12384;DHT22;6256;63.808;20.336;2022-12-11T16:18:20;-1.80;99.90
12384;DHT22;6256;63.808;20.336;2022-12-11T16:20:47;-1.90;99.90
12384;DHT22;6256;63.808;20.336;2022-12-11T16:23:13;-1.80;99.90
12384;DHT22;6256;63.808;20.336;2022-12-11T16:25:41;-1.80;99.90
12384;DHT22;6256;63.808;20.336;2022-12-11T16:28:09;-1.80;99.90
12384;DHT22;6256;63.808;20.336;2022-12-11T16:30:35;-1.80;99.90
12384;DHT22;6256;63.808;20.336;2022-12-11T16:33:03;-1.80;99.90
12384;DHT22;6256;63.808;20.336;2022-12-11T16:35:29;-1.80;99.90
12384;DHT22;6256;63.808;20.336;2022-12-11T16:37:55;-1.80;99.90
12384;DHT22;6256;63.808;20.336;2022-12-11T16:40:21;-1.80;99.90
12384;DHT22;6256;63.808;20.336;2022-12-11T16:42:47;-1.80;99.90
12384;DHT22;6256;63.808;20.336;2022-12-11T16:45:22;-1.80;99.90
12384;DHT22;6256;63.808;20.336;2022-12-11T16:47:49;-1.90;99.90
12384;DHT22;6256;63.808;20.336;2022-12-11T16:50:15;-1.90;99.90
12384;DHT22;6256;63.808;20.336;2022-12-11T16:52:42;-1.90;99.90
12384;DHT22;6256;63.808;20.336;2022-12-11T16:55:09;-1.90;99.90
12384;DHT22;6256;63.808;20.336;2022-12-11T16:57:36;-1.90;99.90
12384;DHT22;6256;63.808;20.336;2022-12-11T17:00:04;-1.90;99.90
12384;DHT22;6256;63.808;20.336;2022-12-11T17:02:30;-1.90;99.90
12384;DHT22;6256;63.808;20.336;2022-12-11T17:04:56;-1.90;99.90
12384;DHT22;6256;63.808;20.336;2022-12-11T17:07:22;-1.90;99.90
12384;DHT22;6256;63.808;20.336;2022-12-11T17:09:48;-1.90;99.90
12384;DHT22;6256;63.808;20.336;2022-12-11T17:12:13;-1.90;99.90
12384;DHT22;6256;63.808;20.336;2022-12-11T17:14:39;-1.90;99.90
12384;DHT22;6256;63.808;20.336;2022-12-11T17:17:06;-1.90;99.90
12384;DHT22;6256;63.808;20.336;2022-12-11T17:19:31;-1.90;99.90
12384;DHT22;6256;63.808;20.336;2022-12-11T17:21:57;-1.90;99.90